Harvard, Illinois
Current Conditions -  °F | °C
As of 2:15 PM on Thursday 30 Oct 2014 (Local Time) from KBUU Reporting Station
Broken Clouds Broken Clouds  
Wind Chill: 47°   Ceiling: 9000
Heat Index: 50°   Visibility: 10mi
Dew Point: 33°   Wind: 6mph
Humidity: 52%   Direction: 270°W
Pressure: 30.05"   Gusts: NA
Location:  42.42°N, 88.62°W
Report Text: KBUU 301915Z AUTO 27005KT 10SM BKN090 BKN110 10/00 A3005 RMK AO2 T00980004
Loading
Personal Weather Stations






























Interactive Weather Map
Tropical Storm Tracking
New forecast layout! Learn more

10-Day Weather Forecast

Advertisements
Track Severe Weather on mobile